< Cyclone 197012 1970 Season Cyclone 197101 >
Cyclone 197013 (KATHY)
General InformationTrack Information on Google Maps || ResourceGoogle EarthGE AnimationAtom FeedGeoJSON
Detalied Best Track (Time Zone = UTC)
Year Month Day Hour Lat. Long. Pressure (hPa) Wind (kt) Class Image Chart
1970 3 19 00 -10.9 98.0 1006 0 0 -- --
1970 3 20 00 -7.9 96.0 1004 0 0 -- --
1970 3 21 00 -7.9 93.0 1002 0 0 -- --
1970 3 22 00 -9.9 95.0 1002 0 0 -- --
1970 3 23 00 -12.8 90.6 1000 0 0 -- --
1970 3 23 06 -13.0 90.3 998.75 0 0 -- --
1970 3 23 12 -13.1 89.7 997.5 0 0 -- --
1970 3 23 18 -13.2 89.0 996.25 0 0 -- --
1970 3 24 00 -13.3 88.2 995 0 0 -- --
1970 3 24 06 -13.5 87.4 993.75 0 0 -- --
1970 3 24 12 -13.8 86.6 992.5 0 0 -- --
1970 3 24 18 -14.1 85.8 991.25 0 0 -- --
1970 3 25 00 -14.4 85.0 990 0 0 -- --
1970 3 25 06 -14.7 83.9 990 0 0 -- --
1970 3 25 12 -15.0 82.7 990 0 0 -- --
1970 3 25 18 -15.3 81.6 990 0 0 -- --
1970 3 26 00 -15.6 80.7 990 0 0 -- --
1970 3 26 06 -15.9 80.1 990 0 0 -- --
1970 3 26 12 -16.3 79.5 990 0 0 -- --
1970 3 26 18 -16.6 78.9 990 0 0 -- --
1970 3 27 00 -17.0 78.2 990 0 0 -- --
1970 3 27 06 -17.4 77.4 990 0 0 -- --
1970 3 27 12 -17.9 76.6 990 0 0 -- --
1970 3 27 18 -18.3 76.0 990 0 0 -- --
1970 3 28 00 -18.7 75.4 990 0 0 -- --
1970 3 28 06 -19.1 74.7 990 0 0 -- --
1970 3 28 12 -19.5 73.9 990 0 0 -- --
1970 3 28 18 -19.9 73.2 990 0 0 -- --
1970 3 29 00 -20.4 72.5 990 0 0 -- --
1970 3 29 06 -20.8 71.9 990 0 0 -- --
1970 3 29 12 -21.3 71.3 990 0 0 -- --
1970 3 29 18 -21.8 70.7 990 0 0 -- --
1970 3 30 00 -22.4 70.1 990 0 0 -- --
1970 3 30 06 -23.1 69.4 990 0 0 -- --
1970 3 30 12 -23.9 68.6 990 0 0 -- --
< Cyclone 197012 1970 Season Cyclone 197101 >

Help